Time;durP1;ratioP1;P1;durP2;ratioP2;P2;SDS_P1;SDS_P2;PMS_P1;PMS_P2;Temp;Humidity;BMP_temperature;BMP_pressure;BME280_temperature;BME280_humidity;BME280_pressure;Samples;Min_cycle;Max_cycle;Signal;HPM_P1;HPM_P2
2023/01/28 00:00:50;;;;;;;5.67;4.40;;;3.70;99.90;;;;;;5077243;28;20251;-66
2023/01/28 00:03:17;;;;;;;5.63;4.57;;;3.70;99.90;;;;;;5077447;28;20204;-64
2023/01/28 00:05:44;;;;;;;5.13;4.43;;;3.70;99.90;;;;;;5077452;28;20676;-66
2023/01/28 00:08:12;;;;;;;5.43;4.37;;;3.80;99.90;;;;;;5079139;28;20201;-68
2023/01/28 00:10:39;;;;;;;5.37;4.23;;;3.80;99.90;;;;;;5094194;28;20209;-68
2023/01/28 00:13:06;;;;;;;6.20;4.97;;;3.90;99.90;;;;;;5093171;28;20231;-66
2023/01/28 00:15:34;;;;;;;6.10;4.53;;;3.90;99.90;;;;;;5093595;28;20220;-68
2023/01/28 00:18:00;;;;;;;5.03;4.30;;;3.90;99.90;;;;;;5094111;28;20233;-69
2023/01/28 00:20:27;;;;;;;5.30;4.20;;;3.80;99.90;;;;;;5095897;28;20193;-67
2023/01/28 00:22:54;;;;;;;6.00;4.20;;;3.80;99.90;;;;;;5089916;28;20224;-65
2023/01/28 00:25:20;;;;;;;5.93;4.57;;;3.70;99.90;;;;;;5078036;28;20201;-67
2023/01/28 00:27:47;;;;;;;5.67;4.70;;;3.70;99.90;;;;;;5075850;28;20668;-64
2023/01/28 00:30:14;;;;;;;5.77;4.53;;;3.70;99.90;;;;;;5075841;28;20209;-65
2023/01/28 00:32:42;;;;;;;5.87;4.57;;;3.70;99.90;;;;;;5077334;28;20205;-65
2023/01/28 00:35:10;;;;;;;5.80;4.53;;;3.70;99.90;;;;;;5077104;28;20274;-67
2023/01/28 00:37:37;;;;;;;5.30;4.00;;;3.70;99.90;;;;;;5075176;28;20752;-64
2023/01/28 00:40:03;;;;;;;6.47;4.47;;;3.80;99.90;;;;;;5086109;28;20660;-65
2023/01/28 00:42:31;;;;;;;6.30;5.03;;;3.70;99.90;;;;;;5089162;28;20224;-65
2023/01/28 00:44:57;;;;;;;4.83;4.00;;;3.70;99.90;;;;;;5088284;28;20224;-66
2023/01/28 00:47:24;;;;;;;5.47;4.20;;;3.70;99.90;;;;;;5087691;28;20228;-65
2023/01/28 00:49:52;;;;;;;5.60;4.33;;;3.70;99.90;;;;;;5089709;28;20258;-64
2023/01/28 00:52:19;;;;;;;4.80;3.97;;;3.70;99.90;;;;;;5088776;28;20254;-64
2023/01/28 00:54:45;;;;;;;4.90;4.10;;;3.70;99.90;;;;;;5087973;28;20221;-68
2023/01/28 00:57:12;;;;;;;4.77;4.10;;;3.70;99.90;;;;;;5086489;28;20236;-64
2023/01/28 00:59:39;;;;;;;5.70;4.70;;;3.60;99.90;;;;;;5076167;28;20213;-64
2023/01/28 01:02:11;;;;;;;4.83;4.10;;;3.70;99.90;;;;;;5076153;28;20649;-66
2023/01/28 01:04:38;;;;;;;4.80;4.03;;;3.70;99.90;;;;;;5076124;28;20205;-64
2023/01/28 01:07:06;;;;;;;6.73;4.30;;;3.70;99.90;;;;;;5076118;28;20229;-64
2023/01/28 01:09:33;;;;;;;5.33;4.30;;;3.80;99.90;;;;;;5075260;28;20254;-64
2023/01/28 01:12:00;;;;;;;5.73;4.13;;;4.00;99.90;;;;;;5076491;28;20259;-65
2023/01/28 01:14:26;;;;;;;4.97;4.10;;;4.00;99.90;;;;;;5076257;28;20205;-65
2023/01/28 01:16:53;;;;;;;4.83;4.13;;;4.10;99.90;;;;;;5076887;28;20595;-64
2023/01/28 01:19:20;;;;;;;4.43;3.63;;;4.10;99.90;;;;;;5076467;28;20227;-67
2023/01/28 01:21:49;;;;;;;4.20;3.63;;;4.10;99.90;;;;;;5075679;28;20217;-64
2023/01/28 01:24:17;;;;;;;5.50;4.10;;;4.20;99.90;;;;;;5075113;28;20581;-64
2023/01/28 01:26:43;;;;;;;4.87;3.70;;;4.10;99.90;;;;;;5074569;28;20236;-65
2023/01/28 01:29:10;;;;;;;5.73;4.33;;;4.20;99.90;;;;;;5074654;28;20231;-66
2023/01/28 01:31:37;;;;;;;5.50;4.10;;;4.20;99.90;;;;;;5073451;28;20234;-64
2023/01/28 01:34:04;;;;;;;5.20;4.23;;;4.20;99.90;;;;;;5073717;28;20205;-64
2023/01/28 01:36:31;;;;;;;4.57;3.57;;;4.30;99.90;;;;;;5073552;28;20232;-66
2023/01/28 01:38:58;;;;;;;4.97;4.17;;;4.40;99.90;;;;;;5073676;28;20213;-63
2023/01/28 01:41:28;;;;;;;4.97;3.70;;;4.40;99.90;;;;;;5073896;28;20257;-64
2023/01/28 01:43:57;;;;;;;5.67;4.20;;;4.30;99.90;;;;;;5073736;28;20211;-64
2023/01/28 01:46:30;;;;;;;5.00;4.00;;;4.20;99.90;;;;;;5073914;28;20599;-64
2023/01/28 01:49:02;;;;;;;6.70;4.20;;;4.10;99.90;;;;;;5074176;28;20607;-64
2023/01/28 01:51:34;;;;;;;6.70;3.87;;;4.00;99.90;;;;;;5073914;28;20205;-65
2023/01/28 01:54:01;;;;;;;4.93;3.97;;;3.90;99.90;;;;;;5073649;28;20205;-68
2023/01/28 01:56:35;;;;;;;4.93;3.73;;;3.90;99.90;;;;;;5073568;28;20228;-64
2023/01/28 01:59:02;;;;;;;5.17;3.97;;;4.00;99.90;;;;;;5073692;28;20201;-66
2023/01/28 02:01:31;;;;;;;4.87;3.73;;;4.00;99.90;;;;;;5073041;28;20269;-64
2023/01/28 02:04:04;;;;;;;5.40;3.97;;;4.00;99.90;;;;;;5073456;28;20204;-64
2023/01/28 02:06:32;;;;;;;6.10;4.23;;;4.00;99.90;;;;;;5073362;28;20233;-64
2023/01/28 02:08:59;;;;;;;5.87;4.30;;;4.00;99.90;;;;;;5073403;28;20201;-64
2023/01/28 02:11:30;;;;;;;5.70;4.37;;;4.10;99.90;;;;;;5073495;28;20215;-65
2023/01/28 02:13:59;;;;;;;5.13;4.17;;;4.20;99.90;;;;;;5074769;28;20209;-65
2023/01/28 02:16:27;;;;;;;5.20;4.40;;;4.20;99.90;;;;;;5073680;28;20220;-65
2023/01/28 02:18:54;;;;;;;5.30;3.83;;;4.10;99.90;;;;;;5073205;28;20205;-65
2023/01/28 02:21:50;;;;;;;6.03;4.00;;;4.10;99.90;;;;;;5073307;28;20262;-64
2023/01/28 02:24:45;;;;;;;6.00;4.23;;;4.00;99.90;;;;;;5072902;28;20209;-64
2023/01/28 02:27:24;;;;;;;4.57;4.00;;;4.00;99.90;;;;;;5107342;22;20310;-58
2023/01/28 02:29:59;;;;;;;5.90;4.57;;;4.00;99.90;;;;;;5088776;28;20201;-59
2023/01/28 02:32:32;;;;;;;5.20;4.30;;;3.90;99.90;;;;;;5095969;28;20207;-58
2023/01/28 02:35:06;;;;;;;5.10;4.40;;;3.90;99.90;;;;;;5095281;28;20211;-59
2023/01/28 02:37:38;;;;;;;6.00;4.93;;;3.80;99.90;;;;;;5107510;28;20698;-59
2023/01/28 02:40:09;;;;;;;8.03;5.03;;;3.80;99.90;;;;;;5115732;28;20214;-59
2023/01/28 02:42:39;;;;;;;5.37;4.53;;;3.80;99.90;;;;;;5114842;28;20262;-59
2023/01/28 02:45:18;;;;;;;5.10;4.50;;;3.70;99.90;;;;;;5114977;28;20443;-59
2023/01/28 02:47:56;;;;;;;7.63;4.80;;;3.60;99.90;;;;;;5115953;28;20220;-59
2023/01/28 02:50:25;;;;;;;4.87;4.27;;;3.60;99.90;;;;;;5115940;28;20209;-59
2023/01/28 02:55:55;;;;;;;5.27;4.70;;;3.70;99.90;;;;;;5115761;28;20658;-59
2023/01/28 02:58:30;;;;;;;5.83;4.73;;;3.60;99.90;;;;;;5116613;28;20245;-58
2023/01/28 03:01:10;;;;;;;6.83;5.30;;;3.70;99.90;;;;;;5115987;28;20207;-59
2023/01/28 03:03:46;;;;;;;5.63;4.73;;;3.70;99.90;;;;;;5116341;28;20710;-58
2023/01/28 03:06:18;;;;;;;6.57;5.10;;;3.70;99.90;;;;;;5116109;28;20207;-59
2023/01/28 03:36:52;;;;;;;6.63;5.60;;;3.20;99.90;;;;;;5114814;28;20222;-59
2023/01/28 03:39:22;;;;;;;6.90;5.67;;;3.20;99.90;;;;;;5114646;28;20312;-59
2023/01/28 03:42:00;;;;;;;7.10;5.33;;;3.20;99.90;;;;;;5114923;28;20211;-59
2023/01/28 03:47:12;;;;;;;7.73;6.07;;;3.40;99.90;;;;;;5115523;28;20701;-58
2023/01/28 03:49:42;;;;;;;8.10;5.60;;;3.40;99.90;;;;;;5115483;28;20203;-59
2023/01/28 03:52:10;;;;;;;8.13;5.87;;;3.40;99.90;;;;;;5115123;28;20203;-59
2023/01/28 03:54:36;;;;;;;6.67;5.73;;;3.40;99.90;;;;;;5115477;28;20269;-59
2023/01/28 03:57:04;;;;;;;6.17;5.47;;;3.40;99.90;;;;;;5118450;28;20223;-59
2023/01/28 03:59:31;;;;;;;6.67;5.60;;;3.40;99.90;;;;;;5118975;28;20215;-59
2023/01/28 04:01:58;;;;;;;7.57;5.90;;;3.30;99.90;;;;;;5119048;28;20211;-59
2023/01/28 04:04:25;;;;;;;7.70;5.97;;;3.40;99.90;;;;;;5118467;28;20294;-61
2023/01/28 04:06:55;;;;;;;6.90;5.73;;;3.30;99.90;;;;;;5118934;28;20230;-59
2023/01/28 04:09:22;;;;;;;7.77;5.80;;;3.40;99.90;;;;;;5118834;28;20219;-59
2023/01/28 04:11:50;;;;;;;6.70;5.43;;;3.40;99.90;;;;;;5119340;28;20208;-59
2023/01/28 04:14:17;;;;;;;7.20;5.50;;;3.50;99.90;;;;;;5120210;28;20199;-59
2023/01/28 04:16:45;;;;;;;6.93;6.13;;;3.50;99.90;;;;;;5119952;28;20273;-60
2023/01/28 04:19:12;;;;;;;6.90;5.43;;;3.50;99.90;;;;;;5121009;28;20230;-59
2023/01/28 04:21:39;;;;;;;7.30;5.53;;;3.50;99.90;;;;;;5121301;28;20211;-60
2023/01/28 04:24:08;;;;;;;7.70;5.77;;;3.50;99.90;;;;;;5120102;28;20229;-60
2023/01/28 04:26:35;;;;;;;8.87;5.80;;;3.50;99.90;;;;;;5121073;28;20243;-59
2023/01/28 04:29:02;;;;;;;7.53;5.67;;;3.60;99.90;;;;;;5120232;28;20215;-59
2023/01/28 04:31:28;;;;;;;7.60;5.63;;;3.70;99.90;;;;;;5120975;28;20204;-60
2023/01/28 04:33:55;;;;;;;7.77;5.97;;;3.70;99.90;;;;;;5120667;28;20204;-59
2023/01/28 04:36:22;;;;;;;7.33;6.10;;;3.80;99.90;;;;;;5120286;28;20234;-59
2023/01/28 04:38:49;;;;;;;7.70;5.50;;;3.90;99.90;;;;;;5119201;28;20697;-59
2023/01/28 04:41:17;;;;;;;9.37;5.83;;;3.90;99.90;;;;;;5119370;28;20260;-60
2023/01/28 04:43:44;;;;;;;7.40;6.03;;;4.00;99.90;;;;;;5119052;28;20224;-59
2023/01/28 04:46:10;;;;;;;7.73;5.83;;;4.10;99.90;;;;;;5118849;28;20682;-60
2023/01/28 04:48:38;;;;;;;6.60;5.40;;;4.10;99.90;;;;;;5119559;28;20207;-59
2023/01/28 04:51:05;;;;;;;6.10;5.07;;;4.00;99.90;;;;;;5119193;28;20206;-59
2023/01/28 04:53:32;;;;;;;6.93;5.33;;;3.80;99.90;;;;;;5119953;28;20196;-59
2023/01/28 04:55:58;;;;;;;7.30;5.70;;;3.80;99.90;;;;;;5118584;28;20589;-59
2023/01/28 04:58:27;;;;;;;5.83;4.90;;;3.70;99.90;;;;;;5118979;28;20215;-58
2023/01/28 05:00:55;;;;;;;6.90;4.90;;;3.70;99.90;;;;;;5119256;28;20576;-59
2023/01/28 05:03:22;;;;;;;6.67;5.10;;;3.70;99.90;;;;;;5118573;28;20255;-60
2023/01/28 05:05:49;;;;;;;8.57;5.80;;;3.70;99.90;;;;;;5117591;28;20212;-60
2023/01/28 05:08:16;;;;;;;6.63;5.20;;;3.70;99.90;;;;;;5118891;28;20227;-59
2023/01/28 05:10:43;;;;;;;7.20;5.30;;;3.70;99.90;;;;;;5118945;28;20207;-59
2023/01/28 05:13:09;;;;;;;7.50;5.60;;;3.80;99.90;;;;;;5118721;28;20438;-59
2023/01/28 05:15:37;;;;;;;6.47;5.30;;;3.80;99.90;;;;;;5118244;28;20682;-59
2023/01/28 05:18:05;;;;;;;6.87;5.10;;;3.70;99.90;;;;;;5118464;28;20231;-59
2023/01/28 05:20:31;;;;;;;6.47;5.60;;;3.50;99.90;;;;;;5118212;28;20581;-59
2023/01/28 05:22:58;;;;;;;7.83;5.60;;;3.30;99.90;;;;;;5117618;28;20238;-59
2023/01/28 05:25:26;;;;;;;7.23;5.30;;;3.20;99.90;;;;;;5118331;28;20230;-59
2023/01/28 05:27:53;;;;;;;7.00;5.33;;;3.10;99.90;;;;;;5117640;28;20267;-59
2023/01/28 05:30:20;;;;;;;9.90;5.90;;;3.00;99.90;;;;;;5117908;28;20231;-59
2023/01/28 05:32:48;;;;;;;7.00;5.70;;;2.90;99.90;;;;;;5117490;28;20199;-59
2023/01/28 05:35:15;;;;;;;9.17;6.37;;;3.00;99.90;;;;;;5116991;28;20207;-59
2023/01/28 05:37:42;;;;;;;7.43;6.03;;;3.00;99.90;;;;;;5116916;28;20501;-59
2023/01/28 05:40:10;;;;;;;8.37;6.60;;;3.20;99.90;;;;;;5117393;28;20200;-59
2023/01/28 05:42:37;;;;;;;9.17;6.23;;;3.20;99.90;;;;;;5117345;28;20191;-59
2023/01/28 05:45:04;;;;;;;7.67;6.57;;;3.20;99.90;;;;;;5116929;28;20204;-59
2023/01/28 05:47:31;;;;;;;8.83;6.23;;;3.10;99.90;;;;;;5117796;28;20235;-59
2023/01/28 05:49:59;;;;;;;8.73;6.30;;;3.00;99.90;;;;;;5117236;28;20204;-65
2023/01/28 05:52:25;;;;;;;8.60;6.67;;;3.00;99.90;;;;;;5116482;28;20203;-59
2023/01/28 05:54:52;;;;;;;7.67;6.07;;;3.00;99.90;;;;;;5116179;28;20206;-59
2023/01/28 05:57:19;;;;;;;9.00;6.20;;;3.00;99.90;;;;;;5116844;28;20227;-58
2023/01/28 05:59:45;;;;;;;8.83;6.37;;;2.90;99.90;;;;;;5117970;28;20214;-59
2023/01/28 06:02:12;;;;;;;7.73;6.23;;;3.00;99.90;;;;;;5118115;28;20615;-59
2023/01/28 06:04:39;;;;;;;8.43;6.43;;;3.20;99.90;;;;;;5117999;28;20583;-58
2023/01/28 06:07:07;;;;;;;9.23;7.20;;;3.40;99.90;;;;;;5117305;28;20224;-59
2023/01/28 06:09:33;;;;;;;9.53;7.53;;;3.50;99.90;;;;;;5117954;28;20666;-59
2023/01/28 06:12:00;;;;;;;7.73;6.40;;;3.60;99.90;;;;;;5118179;28;20679;-59
2023/01/28 06:14:27;;;;;;;9.13;6.53;;;3.60;99.90;;;;;;5117668;28;20202;-59
2023/01/28 06:16:54;;;;;;;7.70;6.87;;;3.60;99.90;;;;;;5117157;28;20226;-59
2023/01/28 06:19:20;;;;;;;8.47;6.60;;;3.70;99.90;;;;;;5117642;28;20207;-60
2023/01/28 06:21:47;;;;;;;8.03;6.80;;;3.80;99.90;;;;;;5117893;28;20387;-60
2023/01/28 06:24:15;;;;;;;9.23;6.93;;;3.80;99.90;;;;;;5117682;28;20705;-59
2023/01/28 06:26:42;;;;;;;11.80;8.10;;;3.90;99.90;;;;;;5117743;28;20243;-59
2023/01/28 06:29:08;;;;;;;14.03;8.00;;;3.90;99.90;;;;;;5117797;28;20230;-59
2023/01/28 06:31:35;;;;;;;11.60;7.60;;;4.00;99.90;;;;;;5118095;28;20200;-59
2023/01/28 06:34:02;;;;;;;12.80;9.40;;;4.00;99.90;;;;;;5118053;28;20576;-59
2023/01/28 06:36:29;;;;;;;8.43;6.50;;;3.90;99.90;;;;;;5119064;28;20224;-59
2023/01/28 06:38:56;;;;;;;13.13;8.33;;;3.90;99.90;;;;;;5118891;28;20479;-60
2023/01/28 06:41:24;;;;;;;18.23;11.63;;;3.80;99.90;;;;;;5117629;28;20203;-59
2023/01/28 06:43:51;;;;;;;11.73;6.90;;;3.80;99.90;;;;;;5116385;28;20231;-60
2023/01/28 06:46:17;;;;;;;9.20;6.60;;;3.80;99.90;;;;;;5117872;28;20203;-59
2023/01/28 06:48:44;;;;;;;8.07;6.60;;;3.70;99.90;;;;;;5118775;28;20211;-59
2023/01/28 06:51:11;;;;;;;10.13;6.67;;;3.70;99.90;;;;;;5117047;28;20233;-59
2023/01/28 06:53:38;;;;;;;8.70;6.73;;;3.70;99.90;;;;;;5118318;28;20203;-59
2023/01/28 06:56:05;;;;;;;11.73;8.43;;;3.70;99.90;;;;;;5118659;28;20556;-59
2023/01/28 06:58:33;;;;;;;8.17;6.67;;;3.70;99.90;;;;;;5117760;28;20203;-60
2023/01/28 07:01:00;;;;;;;14.20;8.13;;;3.80;99.90;;;;;;5118753;28;20383;-58
2023/01/28 07:03:27;;;;;;;9.13;7.50;;;3.80;99.90;;;;;;5118487;28;20223;-59
2023/01/28 07:05:54;;;;;;;9.13;7.20;;;3.90;99.90;;;;;;5117851;28;20620;-59
2023/01/28 07:08:21;;;;;;;10.63;7.10;;;3.80;99.90;;;;;;5117206;28;20223;-58
2023/01/28 07:10:48;;;;;;;8.23;6.83;;;3.70;99.90;;;;;;5117434;28;20203;-59
2023/01/28 07:13:15;;;;;;;11.03;7.77;;;3.60;99.90;;;;;;5117351;28;20208;-59
2023/01/28 07:15:43;;;;;;;10.03;7.43;;;3.50;99.90;;;;;;5116826;28;20211;-59
2023/01/28 07:18:10;;;;;;;9.00;7.60;;;3.70;99.90;;;;;;5117272;28;20233;-58
2023/01/28 07:20:36;;;;;;;8.03;7.10;;;3.80;99.90;;;;;;5116964;28;20195;-59
2023/01/28 07:23:03;;;;;;;19.80;12.47;;;3.90;99.90;;;;;;5117247;28;20272;-58
2023/01/28 07:25:30;;;;;;;18.83;12.10;;;3.90;99.90;;;;;;5117142;28;20210;-59
2023/01/28 07:27:57;;;;;;;9.07;7.40;;;4.10;99.90;;;;;;5116101;28;20235;-58
2023/01/28 07:30:24;;;;;;;9.47;7.20;;;4.20;99.90;;;;;;5119507;28;20214;-58
2023/01/28 07:32:55;;;;;;;10.43;7.90;;;4.10;99.90;;;;;;5121257;28;20211;-59
2023/01/28 07:35:22;;;;;;;14.57;9.57;;;4.10;99.90;;;;;;5120450;28;20757;-60
2023/01/28 07:37:53;;;;;;;9.77;7.60;;;4.30;99.90;;;;;;5120344;28;20250;-60
2023/01/28 07:40:20;;;;;;;13.47;9.23;;;4.30;99.90;;;;;;5119727;28;20750;-59
2023/01/28 07:42:47;;;;;;;8.97;7.37;;;4.40;99.90;;;;;;5120241;28;20203;-60
2023/01/28 07:45:15;;;;;;;10.40;7.30;;;4.30;99.90;;;;;;5120609;28;20231;-60
2023/01/28 07:47:42;;;;;;;10.47;7.43;;;4.30;99.90;;;;;;5121272;28;20235;-59
2023/01/28 07:50:11;;;;;;;9.10;6.63;;;4.40;99.90;;;;;;5121089;28;20230;-60
2023/01/28 07:52:43;;;;;;;9.97;7.47;;;4.20;99.90;;;;;;5120044;28;20260;-60
2023/01/28 07:55:11;;;;;;;11.60;8.07;;;4.00;99.90;;;;;;5119535;28;20203;-58
2023/01/28 07:57:37;;;;;;;10.23;7.93;;;3.90;99.90;;;;;;5119796;27;20228;-60
2023/01/28 08:00:05;;;;;;;9.87;7.27;;;4.10;99.90;;;;;;5119804;27;20624;-59
2023/01/28 08:02:32;;;;;;;10.53;7.93;;;4.20;99.90;;;;;;5119514;28;20694;-58
2023/01/28 08:05:00;;;;;;;9.63;7.80;;;4.30;99.90;;;;;;5119596;28;20640;-59
2023/01/28 08:07:29;;;;;;;23.20;15.17;;;4.30;99.90;;;;;;5119268;28;20230;-60
2023/01/28 08:09:55;;;;;;;10.10;7.83;;;4.30;99.90;;;;;;5119405;28;20629;-60
2023/01/28 08:12:23;;;;;;;9.20;7.27;;;4.30;99.90;;;;;;5119332;28;20211;-59
2023/01/28 08:14:50;;;;;;;10.60;7.80;;;4.20;99.90;;;;;;5119131;28;20200;-59
2023/01/28 08:17:16;;;;;;;9.70;7.70;;;4.20;99.90;;;;;;5119635;28;20277;-59
2023/01/28 08:19:43;;;;;;;10.73;7.80;;;4.20;99.90;;;;;;5119119;28;20203;-59
2023/01/28 08:22:10;;;;;;;9.63;8.13;;;4.00;99.90;;;;;;5118369;28;20199;-61
2023/01/28 08:24:38;;;;;;;10.87;7.70;;;4.00;99.90;;;;;;5118761;28;20223;-58
2023/01/28 08:27:05;;;;;;;9.63;7.83;;;4.00;99.90;;;;;;5120480;28;20235;-59
2023/01/28 08:29:33;;;;;;;10.17;7.63;;;4.20;99.90;;;;;;5117196;28;20208;-59
2023/01/28 08:31:59;;;;;;;10.37;7.90;;;4.50;99.90;;;;;;5117350;28;20244;-58
2023/01/28 08:34:26;;;;;;;10.33;8.00;;;4.70;99.90;;;;;;5116793;28;20207;-59
2023/01/28 08:36:53;;;;;;;10.37;8.63;;;4.60;99.90;;;;;;5117357;28;20219;-58
2023/01/28 08:39:19;;;;;;;11.27;8.57;;;4.70;99.90;;;;;;5117810;28;20207;-59
2023/01/28 08:41:48;;;;;;;11.00;8.80;;;4.80;99.90;;;;;;5117706;28;20214;-61
2023/01/28 08:44:15;;;;;;;10.87;8.70;;;5.10;99.90;;;;;;5118105;28;20234;-59
2023/01/28 08:46:42;;;;;;;11.90;8.53;;;5.30;99.90;;;;;;5117947;28;20235;-60
2023/01/28 08:49:09;;;;;;;10.20;8.10;;;5.50;99.90;;;;;;5118578;28;20215;-62
2023/01/28 08:51:36;;;;;;;13.20;8.33;;;5.60;99.90;;;;;;5117050;28;20555;-59
2023/01/28 08:54:03;;;;;;;10.93;8.13;;;5.50;99.90;;;;;;5119679;28;20625;-61
2023/01/28 08:56:30;;;;;;;10.17;8.10;;;5.60;99.90;;;;;;5120649;28;20231;-58
2023/01/28 08:58:58;;;;;;;10.83;8.63;;;5.60;99.90;;;;;;5117489;28;20690;-62
2023/01/28 09:01:28;;;;;;;10.37;8.27;;;5.60;99.90;;;;;;5117985;28;20223;-59
2023/01/28 09:03:55;;;;;;;10.37;8.47;;;5.70;99.90;;;;;;5117308;28;20766;-59
2023/01/28 09:06:22;;;;;;;9.87;7.97;;;5.80;99.90;;;;;;5116777;28;20208;-59
2023/01/28 09:08:49;;;;;;;11.47;8.73;;;5.70;99.90;;;;;;5116537;28;20200;-60
2023/01/28 09:11:16;;;;;;;11.60;8.47;;;5.90;99.90;;;;;;5116132;28;20736;-57
2023/01/28 09:13:42;;;;;;;12.37;8.60;;;6.00;99.90;;;;;;5116856;28;20199;-59
2023/01/28 09:16:11;;;;;;;13.17;8.60;;;6.00;99.90;;;;;;5116299;28;20208;-62
2023/01/28 09:18:37;;;;;;;10.47;8.87;;;6.10;99.90;;;;;;5116584;28;20204;-59
2023/01/28 09:21:06;;;;;;;12.80;9.20;;;6.10;99.90;;;;;;5114849;28;20204;-65
2023/01/28 09:23:35;;;;;;;13.00;8.80;;;6.10;99.90;;;;;;5093659;28;20616;-58
2023/01/28 09:26:03;;;;;;;9.80;8.63;;;6.10;99.90;;;;;;5104046;28;20248;-58
2023/01/28 09:28:30;;;;;;;12.67;9.97;;;6.30;99.90;;;;;;5113348;28;20719;-57
2023/01/28 09:31:02;;;;;;;11.73;8.90;;;6.30;99.90;;;;;;5113097;28;20203;-57
2023/01/28 09:33:30;;;;;;;10.07;8.07;;;6.40;99.90;;;;;;5113209;28;20231;-57
2023/01/28 09:36:00;;;;;;;11.13;8.83;;;6.30;99.90;;;;;;5113300;28;20199;-57
2023/01/28 09:38:27;;;;;;;11.27;8.90;;;6.20;99.90;;;;;;5113201;28;20280;-57
2023/01/28 09:40:55;;;;;;;11.27;8.63;;;6.20;99.90;;;;;;5113323;28;20215;-65
2023/01/28 09:43:42;;;;;;;11.60;8.43;;;6.20;99.90;;;;;;5113121;27;20239;-58
2023/01/28 09:46:13;;;;;;;11.40;9.20;;;6.20;99.90;;;;;;5113171;28;20206;-61
2023/01/28 09:48:44;;;;;;;10.23;8.17;;;6.10;99.90;;;;;;5113745;28;20255;-59
2023/01/28 09:51:26;;;;;;;11.23;8.47;;;6.00;99.90;;;;;;5113294;28;20200;-56
2023/01/28 09:53:57;;;;;;;13.60;9.30;;;5.90;99.90;;;;;;5112560;28;20215;-59
2023/01/28 09:56:28;;;;;;;12.00;8.83;;;5.90;99.90;;;;;;5112749;28;20199;-59
2023/01/28 09:58:56;;;;;;;13.07;9.40;;;5.80;99.90;;;;;;5113242;28;20217;-58
2023/01/28 10:01:36;;;;;;;10.47;8.53;;;5.70;99.90;;;;;;5113395;28;20207;-57
2023/01/28 10:04:16;;;;;;;13.00;10.10;;;5.60;99.90;;;;;;5114104;28;20570;-62
2023/01/28 10:06:53;;;;;;;12.13;9.47;;;5.60;99.90;;;;;;5112712;28;20347;-56
2023/01/28 10:09:34;;;;;;;11.07;8.87;;;5.60;99.90;;;;;;5112609;28;20571;-55
2023/01/28 10:12:27;;;;;;;13.00;9.80;;;5.70;99.90;;;;;;5112739;28;20225;-55
2023/01/28 10:15:10;;;;;;;13.77;9.93;;;5.80;99.90;;;;;;5111863;28;20207;-56
2023/01/28 10:17:41;;;;;;;12.47;9.53;;;5.90;99.90;;;;;;5112650;28;20250;-56
2023/01/28 10:20:20;;;;;;;11.87;9.07;;;6.00;99.90;;;;;;5112875;28;20214;-55
2023/01/28 10:22:53;;;;;;;12.37;9.63;;;6.00;99.90;;;;;;5112418;28;20201;-56
2023/01/28 10:25:22;;;;;;;11.83;9.60;;;6.00;99.90;;;;;;5101068;28;20281;-55
2023/01/28 10:27:51;;;;;;;12.13;9.73;;;6.00;99.90;;;;;;5091159;28;20565;-55
2023/01/28 10:30:20;;;;;;;14.97;10.27;;;6.10;99.90;;;;;;5091874;28;20234;-55
2023/01/28 10:32:52;;;;;;;11.43;8.87;;;6.20;99.90;;;;;;5091861;28;20211;-55
2023/01/28 10:35:21;;;;;;;10.80;8.10;;;6.30;99.90;;;;;;5091521;28;20207;-55
2023/01/28 10:37:48;;;;;;;14.23;9.73;;;6.40;99.90;;;;;;5091515;28;20711;-56
2023/01/28 10:40:16;;;;;;;11.50;8.70;;;6.50;99.90;;;;;;5091272;28;20672;-56
2023/01/28 10:42:43;;;;;;;11.37;8.57;;;6.50;99.90;;;;;;5092109;28;20227;-56
2023/01/28 10:45:20;;;;;;;10.87;8.90;;;6.60;99.90;;;;;;5091521;28;20297;-55
2023/01/28 10:47:51;;;;;;;10.53;7.63;;;6.50;99.90;;;;;;5091907;28;20230;-56
2023/01/28 10:50:23;;;;;;;11.77;8.97;;;6.50;99.90;;;;;;5092384;28;20592;-59
2023/01/28 10:52:54;;;;;;;13.23;9.53;;;6.50;99.90;;;;;;5091763;28;20208;-58
2023/01/28 10:55:21;;;;;;;12.23;9.10;;;6.40;99.90;;;;;;5092134;28;20200;-58
2023/01/28 10:57:48;;;;;;;11.03;8.40;;;6.50;99.90;;;;;;5091390;28;20231;-58
2023/01/28 11:00:24;;;;;;;12.13;9.07;;;6.50;99.90;;;;;;5091518;28;20210;-58
2023/01/28 11:02:51;;;;;;;10.63;8.47;;;6.30;99.90;;;;;;5091813;28;20306;-57
2023/01/28 11:05:20;;;;;;;11.80;9.17;;;6.10;99.90;;;;;;5093532;28;20216;-58
2023/01/28 11:07:48;;;;;;;10.90;9.07;;;6.10;99.90;;;;;;5096065;28;20605;-59
2023/01/28 11:10:32;;;;;;;13.27;9.17;;;6.10;99.90;;;;;;5096419;28;20212;-58
2023/01/28 11:13:01;;;;;;;11.80;9.17;;;6.10;99.90;;;;;;5096339;28;20243;-58
2023/01/28 11:15:29;;;;;;;11.30;8.80;;;6.00;99.90;;;;;;5095837;28;20210;-59
2023/01/28 11:17:58;;;;;;;10.67;8.30;;;6.00;99.90;;;;;;5096493;28;20231;-60
2023/01/28 11:20:28;;;;;;;12.13;9.07;;;6.00;99.90;;;;;;5096013;28;20208;-58
2023/01/28 11:22:57;;;;;;;11.13;8.63;;;6.00;99.90;;;;;;5096613;28;20204;-57
2023/01/28 11:25:29;;;;;;;12.73;9.13;;;5.90;99.90;;;;;;5096205;28;20760;-60
2023/01/28 11:27:56;;;;;;;11.80;9.33;;;5.80;99.90;;;;;;5096430;28;20231;-60
2023/01/28 11:30:26;;;;;;;12.80;9.50;;;5.60;99.90;;;;;;5095755;28;20702;-56
2023/01/28 11:32:59;;;;;;;12.40;9.93;;;5.60;99.90;;;;;;5096314;28;20204;-57
2023/01/28 11:35:29;;;;;;;15.10;9.57;;;5.50;99.90;;;;;;5096791;28;20200;-57
2023/01/28 11:37:57;;;;;;;16.47;10.67;;;5.40;99.90;;;;;;5097398;28;20224;-56
2023/01/28 11:40:24;;;;;;;14.33;8.93;;;5.30;99.90;;;;;;5096960;28;20243;-56
2023/01/28 11:42:54;;;;;;;14.70;9.83;;;5.20;99.90;;;;;;5096425;28;20584;-56
2023/01/28 11:45:31;;;;;;;13.73;10.10;;;5.10;99.90;;;;;;5096396;28;20234;-57
2023/01/28 11:48:16;;;;;;;13.47;10.20;;;5.20;99.90;;;;;;5096704;28;20230;-59
2023/01/28 11:50:51;;;;;;;13.00;9.97;;;5.40;99.90;;;;;;5096575;28;20215;-61
2023/01/28 11:53:51;;;;;;;15.47;9.93;;;5.40;99.90;;;;;;5095538;28;20618;-57
2023/01/28 11:56:41;;;;;;;12.80;9.17;;;5.50;99.90;;;;;;5096504;28;20207;-60
2023/01/28 11:59:28;;;;;;;12.93;9.80;;;5.40;99.90;;;;;;5095735;28;20208;-57
2023/01/28 12:02:06;;;;;;;14.00;9.67;;;5.40;99.90;;;;;;5096301;28;20204;-57
2023/01/28 12:04:50;;;;;;;14.70;9.67;;;5.30;99.90;;;;;;5095382;28;20211;-59
2023/01/28 12:07:35;;;;;;;13.87;9.77;;;5.20;99.90;;;;;;5096062;28;20273;-60
2023/01/28 12:10:09;;;;;;;13.43;9.53;;;5.20;99.90;;;;;;5096429;28;20192;-60
2023/01/28 12:12:57;;;;;;;11.70;9.07;;;5.30;99.90;;;;;;5095773;28;20204;-58
2023/01/28 12:15:56;;;;;;;12.20;8.80;;;5.30;99.90;;;;;;5094588;28;20912;-57
2023/01/28 12:18:46;;;;;;;12.67;7.87;;;5.40;99.90;;;;;;5094848;28;20228;-59
2023/01/28 12:21:21;;;;;;;12.57;7.97;;;5.30;99.90;;;;;;5096677;28;20483;-56
2023/01/28 12:24:01;;;;;;;11.77;7.67;;;5.10;99.90;;;;;;5095556;28;20210;-56
2023/01/28 12:26:41;;;;;;;9.23;7.00;;;5.00;99.90;;;;;;5095037;28;20236;-58
2023/01/28 12:29:22;;;;;;;11.37;8.07;;;4.90;99.90;;;;;;5095590;28;20212;-57
2023/01/28 12:32:38;;;;;;;10.97;7.73;;;4.80;99.90;;;;;;5095367;28;20247;-58
2023/01/28 12:35:38;;;;;;;10.83;8.03;;;4.90;99.90;;;;;;5094524;28;20196;-60
2023/01/28 12:38:11;;;;;;;11.00;8.03;;;4.90;99.90;;;;;;5089642;28;20232;-58
2023/01/28 12:40:54;;;;;;;11.50;7.80;;;4.90;99.90;;;;;;5095256;28;20207;-60
2023/01/28 12:43:35;;;;;;;9.57;6.33;;;5.00;99.90;;;;;;5094924;28;20204;-60
2023/01/28 12:46:08;;;;;;;9.20;6.27;;;5.00;99.90;;;;;;5095569;28;20290;-60
2023/01/28 12:48:40;;;;;;;8.27;5.80;;;5.10;99.90;;;;;;5096197;28;20203;-60
2023/01/28 12:51:12;;;;;;;7.07;5.23;;;5.00;99.90;;;;;;5096148;28;20208;-59
2023/01/28 12:53:45;;;;;;;7.37;5.53;;;4.90;99.90;;;;;;5095823;28;20196;-60
2023/01/28 12:56:16;;;;;;;11.00;5.53;;;4.70;99.90;;;;;;5096423;28;20200;-60
2023/01/28 12:58:50;;;;;;;8.07;5.33;;;4.60;99.90;;;;;;5095917;28;20208;-60
2023/01/28 13:01:23;;;;;;;9.50;5.80;;;4.60;99.90;;;;;;5095744;28;20207;-60
2023/01/28 13:03:55;;;;;;;8.20;5.80;;;4.50;99.90;;;;;;5096278;28;20702;-60
2023/01/28 13:06:28;;;;;;;7.63;5.67;;;4.50;99.90;;;;;;5096076;28;20231;-62
2023/01/28 13:09:00;;;;;;;9.50;5.77;;;4.60;99.90;;;;;;5096406;28;20214;-63
2023/01/28 13:11:34;;;;;;;8.57;5.60;;;4.60;99.90;;;;;;5096470;28;20629;-62
2023/01/28 13:14:03;;;;;;;9.03;5.70;;;4.70;99.90;;;;;;5097031;28;20656;-59
2023/01/28 13:16:30;;;;;;;8.07;5.83;;;4.70;99.90;;;;;;5094131;28;20659;-61
2023/01/28 13:19:06;;;;;;;8.13;6.07;;;4.80;99.90;;;;;;5095363;28;20230;-59
2023/01/28 13:21:35;;;;;;;7.67;6.13;;;4.80;99.90;;;;;;5095545;28;20204;-58
2023/01/28 13:24:19;;;;;;;7.93;6.07;;;4.80;99.90;;;;;;5095693;28;20207;-63
2023/01/28 13:26:48;;;;;;;6.80;5.73;;;4.90;99.90;;;;;;5093873;28;20341;-60
2023/01/28 13:29:28;;;;;;;6.67;5.70;;;4.90;99.90;;;;;;5093397;28;20219;-58
2023/01/28 13:31:57;;;;;;;8.97;6.13;;;4.90;99.90;;;;;;5094362;28;20214;-55
2023/01/28 13:34:33;;;;;;;8.33;6.20;;;5.00;99.90;;;;;;5094369;28;20699;-56
2023/01/28 13:37:04;;;;;;;7.47;5.40;;;5.10;99.90;;;;;;5094599;28;20247;-56
2023/01/28 13:39:33;;;;;;;7.63;6.00;;;5.20;99.90;;;;;;5094113;28;20246;-56
2023/01/28 13:42:21;;;;;;;6.87;5.77;;;5.20;99.90;;;;;;5094633;28;20219;-56